sensor_id;sensor_type;location;lat;lon;timestamp;pressure;altitude;pressure_sealevel;temperature;humidity
48652;BME280;34442;52.362;-1.302;2023-05-07T00:00:47;99978.97;;;15.03;100.00
48652;BME280;34442;52.362;-1.302;2023-05-07T00:03:12;99980.03;;;15.02;100.00
48652;BME280;34442;52.362;-1.302;2023-05-07T00:05:39;99971.91;;;15.02;100.00
48652;BME280;34442;52.362;-1.302;2023-05-07T00:08:04;99973.72;;;14.97;100.00
48652;BME280;34442;52.362;-1.302;2023-05-07T00:10:30;99974.78;;;14.96;100.00
48652;BME280;34442;52.362;-1.302;2023-05-07T00:12:55;99971.41;;;14.88;100.00
48652;BME280;34442;52.362;-1.302;2023-05-07T00:15:20;99964.34;;;14.87;100.00
48652;BME280;34442;52.362;-1.302;2023-05-07T00:17:46;99976.75;;;14.83;100.00
48652;BME280;34442;52.362;-1.302;2023-05-07T00:20:11;99970.03;;;14.86;100.00
48652;BME280;34442;52.362;-1.302;2023-05-07T00:22:37;99971.66;;;14.87;100.00
48652;BME280;34442;52.362;-1.302;2023-05-07T00:25:03;99967.66;;;14.89;100.00
48652;BME280;34442;52.362;-1.302;2023-05-07T00:27:28;99979.88;;;14.92;100.00
48652;BME280;34442;52.362;-1.302;2023-05-07T00:29:54;99966.59;;;14.91;100.00
48652;BME280;34442;52.362;-1.302;2023-05-07T00:32:19;99967.41;;;14.91;100.00
48652;BME280;34442;52.362;-1.302;2023-05-07T00:34:45;99967.41;;;14.91;100.00
48652;BME280;34442;52.362;-1.302;2023-05-07T00:37:10;99978.22;;;14.91;100.00
48652;BME280;34442;52.362;-1.302;2023-05-07T00:39:37;99971.75;;;14.92;100.00
48652;BME280;34442;52.362;-1.302;2023-05-07T00:42:04;99970.66;;;14.93;100.00
48652;BME280;34442;52.362;-1.302;2023-05-07T00:44:29;99962.72;;;14.86;100.00
48652;BME280;34442;52.362;-1.302;2023-05-07T00:46:56;99962.47;;;14.88;100.00
48652;BME280;34442;52.362;-1.302;2023-05-07T00:49:25;99967.06;;;14.87;100.00
48652;BME280;34442;52.362;-1.302;2023-05-07T00:51:54;99967.41;;;14.91;100.00
48652;BME280;34442;52.362;-1.302;2023-05-07T00:54:20;99970.09;;;14.91;100.00
48652;BME280;34442;52.362;-1.302;2023-05-07T00:56:46;99969.84;;;14.93;100.00
48652;BME280;34442;52.362;-1.302;2023-05-07T00:59:11;99967.13;;;14.93;100.00
48652;BME280;34442;52.362;-1.302;2023-05-07T01:01:37;99981.50;;;14.93;100.00
48652;BME280;34442;52.362;-1.302;2023-05-07T01:04:02;99970.59;;;14.88;100.00
48652;BME280;34442;52.362;-1.302;2023-05-07T01:06:28;99969.03;;;14.92;100.00
48652;BME280;34442;52.362;-1.302;2023-05-07T01:08:54;99969.28;;;14.91;100.00
48652;BME280;34442;52.362;-1.302;2023-05-07T01:11:22;99965.75;;;14.90;100.00
48652;BME280;34442;52.362;-1.302;2023-05-07T01:13:49;99965.75;;;14.90;100.00
48652;BME280;34442;52.362;-1.302;2023-05-07T01:16:15;99969.03;;;14.92;100.00
48652;BME280;34442;52.362;-1.302;2023-05-07T01:18:41;99972.56;;;14.93;100.00
48652;BME280;34442;52.362;-1.302;2023-05-07T01:21:08;99977.16;;;14.92;100.00
48652;BME280;34442;52.362;-1.302;2023-05-07T01:23:35;99980.69;;;14.93;100.00
48652;BME280;34442;52.362;-1.302;2023-05-07T01:26:01;99977.75;;;14.94;100.00
48652;BME280;34442;52.362;-1.302;2023-05-07T01:28:26;99976.94;;;14.94;100.00
48652;BME280;34442;52.362;-1.302;2023-05-07T01:30:54;99985.59;;;14.96;100.00
48652;BME280;34442;52.362;-1.302;2023-05-07T01:33:21;99981.34;;;15.00;100.00
48652;BME280;34442;52.362;-1.302;2023-05-07T01:35:50;99977.34;;;15.02;100.00
48652;BME280;34442;52.362;-1.302;2023-05-07T01:38:18;99982.97;;;15.01;100.00
48652;BME280;34442;52.362;-1.302;2023-05-07T01:40:43;99983.31;;;15.04;100.00
48652;BME280;34442;52.362;-1.302;2023-05-07T01:43:09;99980.34;;;15.06;100.00
48652;BME280;34442;52.362;-1.302;2023-05-07T01:45:35;99978.16;;;15.03;100.00
48652;BME280;34442;52.362;-1.302;2023-05-07T01:48:02;99975.44;;;15.03;100.00
48652;BME280;34442;52.362;-1.302;2023-05-07T01:50:28;99981.69;;;15.03;100.00
48652;BME280;34442;52.362;-1.302;2023-05-07T01:52:53;99987.44;;;15.07;100.00
48652;BME280;34442;52.362;-1.302;2023-05-07T01:55:19;99989.31;;;15.06;100.00
48652;BME280;34442;52.362;-1.302;2023-05-07T01:57:44;99984.94;;;15.05;100.00
48652;BME280;34442;52.362;-1.302;2023-05-07T02:00:10;99984.88;;;15.00;100.00
48652;BME280;34442;52.362;-1.302;2023-05-07T02:02:36;99989.94;;;14.97;100.00
48652;BME280;34442;52.362;-1.302;2023-05-07T02:05:01;99999.00;;;15.02;100.00
48652;BME280;34442;52.362;-1.302;2023-05-07T02:07:27;100002.00;;;15.06;100.00
48652;BME280;34442;52.362;-1.302;2023-05-07T02:09:53;100008.50;;;15.05;100.00
48652;BME280;34442;52.362;-1.302;2023-05-07T02:12:20;100010.66;;;15.03;100.00
48652;BME280;34442;52.362;-1.302;2023-05-07T02:14:46;100011.19;;;15.05;100.00
48652;BME280;34442;52.362;-1.302;2023-05-07T02:17:11;100014.97;;;15.04;100.00
48652;BME280;34442;52.362;-1.302;2023-05-07T02:19:36;100016.06;;;15.03;100.00
48652;BME280;34442;52.362;-1.302;2023-05-07T02:22:02;100021.69;;;15.01;100.00
48652;BME280;34442;52.362;-1.302;2023-05-07T02:24:27;100020.41;;;15.04;100.00
48652;BME280;34442;52.362;-1.302;2023-05-07T02:26:52;100021.47;;;15.03;100.00
48652;BME280;34442;52.362;-1.302;2023-05-07T02:29:18;100018.75;;;15.03;100.00
48652;BME280;34442;52.362;-1.302;2023-05-07T02:31:43;100022.28;;;15.03;100.00
48652;BME280;34442;52.362;-1.302;2023-05-07T02:34:08;100021.47;;;15.03;100.00
48652;BME280;34442;52.362;-1.302;2023-05-07T02:36:34;100019.25;;;15.00;100.00
48652;BME280;34442;52.362;-1.302;2023-05-07T02:39:00;100034.94;;;14.98;100.00
48652;BME280;34442;52.362;-1.302;2023-05-07T02:41:25;100030.81;;;14.95;100.00
48652;BME280;34442;52.362;-1.302;2023-05-07T02:43:50;100035.16;;;14.96;100.00
48652;BME280;34442;52.362;-1.302;2023-05-07T02:46:16;100038.44;;;14.98;100.00
48652;BME280;34442;52.362;-1.302;2023-05-07T02:48:41;100043.59;;;15.00;100.00
48652;BME280;34442;52.362;-1.302;2023-05-07T02:51:07;100040.91;;;15.00;100.00
48652;BME280;34442;52.362;-1.302;2023-05-07T02:53:32;100040.41;;;15.03;100.00
48652;BME280;34442;52.362;-1.302;2023-05-07T02:55:59;100041.50;;;15.02;100.00
48652;BME280;34442;52.362;-1.302;2023-05-07T02:58:25;100037.47;;;15.04;100.00
48652;BME280;34442;52.362;-1.302;2023-05-07T03:00:51;100049.63;;;15.02;100.00
48652;BME280;34442;52.362;-1.302;2023-05-07T03:03:16;100050.44;;;15.02;100.00
48652;BME280;34442;52.362;-1.302;2023-05-07T03:05:42;100055.03;;;15.02;100.00
48652;BME280;34442;52.362;-1.302;2023-05-07T03:08:08;100050.19;;;15.04;100.00
48652;BME280;34442;52.362;-1.302;2023-05-07T03:10:33;100054.03;;;15.08;100.00
48652;BME280;34442;52.362;-1.302;2023-05-07T03:12:59;100054.28;;;15.06;100.00
48652;BME280;34442;52.362;-1.302;2023-05-07T03:15:24;100057.31;;;15.10;100.00
48652;BME280;34442;52.362;-1.302;2023-05-07T03:17:49;100059.94;;;15.05;100.00
48652;BME280;34442;52.362;-1.302;2023-05-07T03:20:15;100061.91;;;15.09;100.00
48652;BME280;34442;52.362;-1.302;2023-05-07T03:22:41;100069.94;;;15.04;100.00
48652;BME280;34442;52.362;-1.302;2023-05-07T03:25:07;100062.81;;;14.98;100.00
48652;BME280;34442;52.362;-1.302;2023-05-07T03:27:33;100064.50;;;14.87;100.00
48652;BME280;34442;52.362;-1.302;2023-05-07T03:29:58;100072.63;;;14.87;100.00
48652;BME280;34442;52.362;-1.302;2023-05-07T03:32:24;100074.16;;;14.83;100.00
48652;BME280;34442;52.362;-1.302;2023-05-07T03:34:49;100082.03;;;14.85;100.00
48652;BME280;34442;52.362;-1.302;2023-05-07T03:37:15;100080.88;;;14.81;100.00
48652;BME280;34442;52.362;-1.302;2023-05-07T03:39:40;100078.56;;;14.73;100.00
48652;BME280;34442;52.362;-1.302;2023-05-07T03:42:05;100081.25;;;14.73;100.00
48652;BME280;34442;52.362;-1.302;2023-05-07T03:44:31;100083.53;;;14.64;100.00
48652;BME280;34442;52.362;-1.302;2023-05-07T03:46:56;100086.66;;;14.73;100.00
48652;BME280;34442;52.362;-1.302;2023-05-07T03:49:22;100083.97;;;14.73;100.00
48652;BME280;34442;52.362;-1.302;2023-05-07T03:51:47;100087.75;;;14.72;100.00
48652;BME280;34442;52.362;-1.302;2023-05-07T03:54:12;100088.72;;;14.66;100.00
48652;BME280;34442;52.362;-1.302;2023-05-07T03:56:38;100089.75;;;14.64;100.00
48652;BME280;34442;52.362;-1.302;2023-05-07T03:59:16;100091.94;;;14.51;100.00
48652;BME280;34442;52.362;-1.302;2023-05-07T04:01:42;100098.28;;;14.45;100.00
48652;BME280;34442;52.362;-1.302;2023-05-07T04:04:07;100098.75;;;14.42;100.00
48652;BME280;34442;52.362;-1.302;2023-05-07T04:06:32;100097.59;;;14.49;100.00
48652;BME280;34442;52.362;-1.302;2023-05-07T04:08:58;100095.13;;;14.36;100.00
48652;BME280;34442;52.362;-1.302;2023-05-07T04:11:24;100094.53;;;14.34;100.00
48652;BME280;34442;52.362;-1.302;2023-05-07T04:13:50;100099.94;;;14.34;100.00
48652;BME280;34442;52.362;-1.302;2023-05-07T04:16:15;100096.06;;;14.30;100.00
48652;BME280;34442;52.362;-1.302;2023-05-07T04:18:41;100102.44;;;14.12;100.00
48652;BME280;34442;52.362;-1.302;2023-05-07T04:21:16;100099.47;;;14.25;100.00
48652;BME280;34442;52.362;-1.302;2023-05-07T04:23:42;100113.00;;;14.25;100.00
48652;BME280;34442;52.362;-1.302;2023-05-07T04:26:07;100110.06;;;14.27;100.00
48652;BME280;34442;52.362;-1.302;2023-05-07T04:28:34;100122.53;;;14.28;100.00
48652;BME280;34442;52.362;-1.302;2023-05-07T04:30:59;100126.06;;;14.28;100.00
48652;BME280;34442;52.362;-1.302;2023-05-07T04:33:25;100128.06;;;14.21;100.00
48652;BME280;34442;52.362;-1.302;2023-05-07T04:35:50;100126.53;;;14.25;100.00
48652;BME280;34442;52.362;-1.302;2023-05-07T04:38:16;100126.88;;;14.29;100.00
48652;BME280;34442;52.362;-1.302;2023-05-07T04:40:41;100122.63;;;14.33;100.00
48652;BME280;34442;52.362;-1.302;2023-05-07T04:43:07;100131.56;;;14.33;100.00
48652;BME280;34442;52.362;-1.302;2023-05-07T04:45:34;100128.25;;;14.31;100.00
48652;BME280;34442;52.362;-1.302;2023-05-07T04:47:59;100120.16;;;14.31;100.00
48652;BME280;34442;52.362;-1.302;2023-05-07T04:50:25;100129.22;;;14.25;100.00
48652;BME280;34442;52.362;-1.302;2023-05-07T04:52:51;100130.41;;;14.29;100.00
48652;BME280;34442;52.362;-1.302;2023-05-07T04:55:16;100133.56;;;14.26;100.00
48652;BME280;34442;52.362;-1.302;2023-05-07T04:57:41;100125.25;;;14.28;100.00
48652;BME280;34442;52.362;-1.302;2023-05-07T05:00:07;100118.75;;;14.29;100.00
48652;BME280;34442;52.362;-1.302;2023-05-07T05:02:36;100120.84;;;14.38;100.00
48652;BME280;34442;52.362;-1.302;2023-05-07T05:05:02;100125.19;;;14.39;100.00
48652;BME280;34442;52.362;-1.302;2023-05-07T05:07:28;100129.66;;;14.46;100.00
48652;BME280;34442;52.362;-1.302;2023-05-07T05:09:54;100139.88;;;14.44;100.00
48652;BME280;34442;52.362;-1.302;2023-05-07T05:12:20;100137.44;;;14.19;100.00
48652;BME280;34442;52.362;-1.302;2023-05-07T05:14:45;100144.50;;;14.31;100.00
48652;BME280;34442;52.362;-1.302;2023-05-07T05:17:11;100142.03;;;14.18;100.00
48652;BME280;34442;52.362;-1.302;2023-05-07T05:19:36;100144.38;;;14.26;100.00
48652;BME280;34442;52.362;-1.302;2023-05-07T05:22:02;100153.66;;;14.42;100.00
48652;BME280;34442;52.362;-1.302;2023-05-07T05:24:29;100150.59;;;14.38;100.00
48652;BME280;34442;52.362;-1.302;2023-05-07T05:26:55;100158.72;;;14.38;100.00
48652;BME280;34442;52.362;-1.302;2023-05-07T05:29:20;100161.06;;;14.47;100.00
48652;BME280;34442;52.362;-1.302;2023-05-07T05:31:45;100165.41;;;14.48;100.00
48652;BME280;34442;52.362;-1.302;2023-05-07T05:34:11;100169.56;;;14.50;100.00
48652;BME280;34442;52.362;-1.302;2023-05-07T05:36:36;100168.59;;;14.56;100.00
48652;BME280;34442;52.362;-1.302;2023-05-07T05:39:02;100173.88;;;14.63;100.00
48652;BME280;34442;52.362;-1.302;2023-05-07T05:41:27;100167.19;;;14.66;100.00
48652;BME280;34442;52.362;-1.302;2023-05-07T05:43:52;100174.59;;;14.70;100.00
48652;BME280;34442;52.362;-1.302;2023-05-07T05:46:18;100166.31;;;14.77;100.00
48652;BME280;34442;52.362;-1.302;2023-05-07T05:48:44;100171.25;;;14.80;100.00
48652;BME280;34442;52.362;-1.302;2023-05-07T05:51:09;100176.66;;;14.80;100.00
48652;BME280;34442;52.362;-1.302;2023-05-07T05:53:34;100178.00;;;14.77;100.00
48652;BME280;34442;52.362;-1.302;2023-05-07T05:56:00;100180.09;;;14.75;100.00
48652;BME280;34442;52.362;-1.302;2023-05-07T05:58:25;100187.03;;;14.71;100.00
48652;BME280;34442;52.362;-1.302;2023-05-07T06:00:51;100194.00;;;14.67;100.00
48652;BME280;34442;52.362;-1.302;2023-05-07T06:03:17;100192.00;;;14.62;100.00
48652;BME280;34442;52.362;-1.302;2023-05-07T06:05:43;100199.53;;;14.60;100.00
48652;BME280;34442;52.362;-1.302;2023-05-07T06:08:08;100196.00;;;14.60;100.00
48652;BME280;34442;52.362;-1.302;2023-05-07T06:10:35;100199.75;;;14.71;100.00
48652;BME280;34442;52.362;-1.302;2023-05-07T06:13:01;100206.91;;;14.77;100.00
48652;BME280;34442;52.362;-1.302;2023-05-07T06:15:26;100204.09;;;14.83;100.00
48652;BME280;34442;52.362;-1.302;2023-05-07T06:17:52;100203.13;;;14.89;100.00
48652;BME280;34442;52.362;-1.302;2023-05-07T06:20:17;100203.47;;;14.93;100.00
48652;BME280;34442;52.362;-1.302;2023-05-07T06:22:42;100209.00;;;14.98;100.00
48652;BME280;34442;52.362;-1.302;2023-05-07T06:25:08;100208.66;;;14.95;100.00
48652;BME280;34442;52.362;-1.302;2023-05-07T06:27:33;100194.66;;;14.98;100.00
48652;BME280;34442;52.362;-1.302;2023-05-07T06:29:59;100197.91;;;15.00;100.00
48652;BME280;34442;52.362;-1.302;2023-05-07T06:32:24;100196.63;;;15.02;100.00
48652;BME280;34442;52.362;-1.302;2023-05-07T06:34:50;100199.81;;;14.99;100.00
48652;BME280;34442;52.362;-1.302;2023-05-07T06:37:15;100196.38;;;15.04;100.00
48652;BME280;34442;52.362;-1.302;2023-05-07T06:39:41;100200.13;;;15.14;100.00
48652;BME280;34442;52.362;-1.302;2023-05-07T06:42:06;100204.69;;;15.14;100.00
48652;BME280;34442;52.362;-1.302;2023-05-07T06:44:31;100203.38;;;15.17;100.00
48652;BME280;34442;52.362;-1.302;2023-05-07T06:46:57;100209.50;;;15.24;100.00
48652;BME280;34442;52.362;-1.302;2023-05-07T06:49:22;100218.41;;;15.36;100.00
48652;BME280;34442;52.362;-1.302;2023-05-07T06:51:48;100224.00;;;15.46;100.00
48652;BME280;34442;52.362;-1.302;2023-05-07T06:54:13;100223.16;;;15.46;100.00
48652;BME280;34442;52.362;-1.302;2023-05-07T06:56:38;100224.81;;;15.47;100.00
48652;BME280;34442;52.362;-1.302;2023-05-07T06:59:04;100219.94;;;15.60;100.00
48652;BME280;34442;52.362;-1.302;2023-05-07T07:01:29;100228.06;;;15.89;100.00
48652;BME280;34442;52.362;-1.302;2023-05-07T07:03:55;100233.88;;;15.98;100.00
48652;BME280;34442;52.362;-1.302;2023-05-07T07:06:20;100229.59;;;15.85;100.00
48652;BME280;34442;52.362;-1.302;2023-05-07T07:08:46;100233.13;;;15.85;100.00
48652;BME280;34442;52.362;-1.302;2023-05-07T07:11:11;100230.81;;;15.77;100.00
48652;BME280;34442;52.362;-1.302;2023-05-07T07:13:37;100241.13;;;15.63;100.00
48652;BME280;34442;52.362;-1.302;2023-05-07T07:16:02;100234.69;;;15.53;100.00
48652;BME280;34442;52.362;-1.302;2023-05-07T07:18:28;100249.66;;;15.55;100.00
48652;BME280;34442;52.362;-1.302;2023-05-07T07:20:54;100246.44;;;15.58;100.00
48652;BME280;34442;52.362;-1.302;2023-05-07T07:23:19;100237.81;;;15.61;100.00
48652;BME280;34442;52.362;-1.302;2023-05-07T07:25:45;100238.94;;;15.49;100.00
48652;BME280;34442;52.362;-1.302;2023-05-07T07:28:10;100242.72;;;15.48;100.00
48652;BME280;34442;52.362;-1.302;2023-05-07T07:30:36;100247.16;;;15.54;100.00
48652;BME280;34442;52.362;-1.302;2023-05-07T07:33:02;100254.47;;;15.53;100.00
48652;BME280;34442;52.362;-1.302;2023-05-07T07:35:32;100256.78;;;15.73;100.00
48652;BME280;34442;52.362;-1.302;2023-05-07T07:37:57;100255.06;;;15.84;100.00
48652;BME280;34442;52.362;-1.302;2023-05-07T07:40:23;100258.78;;;16.11;100.00
48652;BME280;34442;52.362;-1.302;2023-05-07T07:42:49;100259.44;;;16.19;100.00
48652;BME280;34442;52.362;-1.302;2023-05-07T07:45:14;100261.16;;;16.08;100.00
48652;BME280;34442;52.362;-1.302;2023-05-07T07:47:40;100262.72;;;16.04;100.00
48652;BME280;34442;52.362;-1.302;2023-05-07T07:50:06;100266.03;;;16.06;100.00
48652;BME280;34442;52.362;-1.302;2023-05-07T07:52:32;100266.19;;;16.16;100.00
48652;BME280;34442;52.362;-1.302;2023-05-07T07:54:57;100275.72;;;16.02;100.00
48652;BME280;34442;52.362;-1.302;2023-05-07T07:57:23;100265.44;;;16.04;100.00
48652;BME280;34442;52.362;-1.302;2023-05-07T07:59:49;100268.25;;;16.09;100.00
48652;BME280;34442;52.362;-1.302;2023-05-07T08:02:15;100278.09;;;16.32;100.00
48652;BME280;34442;52.362;-1.302;2023-05-07T08:04:40;100274.72;;;16.42;100.00
48652;BME280;34442;52.362;-1.302;2023-05-07T08:07:08;100272.44;;;16.50;100.00
48652;BME280;34442;52.362;-1.302;2023-05-07T08:09:34;100277.66;;;16.57;100.00
48652;BME280;34442;52.362;-1.302;2023-05-07T08:11:59;100276.59;;;16.58;100.00
48652;BME280;34442;52.362;-1.302;2023-05-07T08:14:26;100279.91;;;16.43;100.00
48652;BME280;34442;52.362;-1.302;2023-05-07T08:16:53;100280.81;;;16.49;100.00
48652;BME280;34442;52.362;-1.302;2023-05-07T08:19:19;100273.69;;;17.20;100.00
48652;BME280;34442;52.362;-1.302;2023-05-07T08:21:45;100277.66;;;17.34;100.00
48652;BME280;34442;52.362;-1.302;2023-05-07T08:24:13;100290.25;;;17.41;100.00
48652;BME280;34442;52.362;-1.302;2023-05-07T08:26:38;100288.91;;;17.43;100.00
48652;BME280;34442;52.362;-1.302;2023-05-07T08:29:04;100289.94;;;17.64;100.00
48652;BME280;34442;52.362;-1.302;2023-05-07T08:31:30;100287.97;;;17.81;100.00
48652;BME280;34442;52.362;-1.302;2023-05-07T08:33:56;100295.66;;;17.90;100.00
48652;BME280;34442;52.362;-1.302;2023-05-07T08:36:22;100295.13;;;18.15;100.00
48652;BME280;34442;52.362;-1.302;2023-05-07T08:38:47;100296.94;;;18.09;100.00
48652;BME280;34442;52.362;-1.302;2023-05-07T08:41:13;100301.72;;;17.70;100.00
48652;BME280;34442;52.362;-1.302;2023-05-07T08:43:41;100302.53;;;17.70;100.00
48652;BME280;34442;52.362;-1.302;2023-05-07T08:46:08;100304.81;;;17.78;100.00
48652;BME280;34442;52.362;-1.302;2023-05-07T08:48:35;100299.72;;;17.65;100.00
48652;BME280;34442;52.362;-1.302;2023-05-07T08:51:01;100301.41;;;17.66;100.00
48652;BME280;34442;52.362;-1.302;2023-05-07T08:53:26;100302.47;;;17.87;100.00
48652;BME280;34442;52.362;-1.302;2023-05-07T08:55:52;100311.69;;;18.13;100.00
48652;BME280;34442;52.362;-1.302;2023-05-07T08:58:18;100307.66;;;18.21;100.00
48652;BME280;34442;52.362;-1.302;2023-05-07T09:00:43;100308.97;;;18.13;100.00
48652;BME280;34442;52.362;-1.302;2023-05-07T09:03:09;100314.84;;;18.32;100.00
48652;BME280;34442;52.362;-1.302;2023-05-07T09:05:37;100314.75;;;18.54;100.00
48652;BME280;34442;52.362;-1.302;2023-05-07T09:08:03;100319.09;;;18.55;100.00
48652;BME280;34442;52.362;-1.302;2023-05-07T09:10:29;100324.66;;;18.33;100.00
48652;BME280;34442;52.362;-1.302;2023-05-07T09:12:55;100327.16;;;18.07;100.00
48652;BME280;34442;52.362;-1.302;2023-05-07T09:15:23;100327.56;;;18.26;100.00
48652;BME280;34442;52.362;-1.302;2023-05-07T09:17:48;100333.81;;;18.59;100.00
48652;BME280;34442;52.362;-1.302;2023-05-07T09:20:13;100329.44;;;18.53;100.00
48652;BME280;34442;52.362;-1.302;2023-05-07T09:22:39;100338.94;;;18.50;100.00
48652;BME280;34442;52.362;-1.302;2023-05-07T09:25:06;100332.41;;;18.51;100.00
48652;BME280;34442;52.362;-1.302;2023-05-07T09:27:31;100339.81;;;18.24;100.00
48652;BME280;34442;52.362;-1.302;2023-05-07T09:29:57;100336.19;;;18.45;100.00
48652;BME280;34442;52.362;-1.302;2023-05-07T09:32:22;100333.34;;;18.67;100.00
48652;BME280;34442;52.362;-1.302;2023-05-07T09:34:47;100340.69;;;18.99;100.00
48652;BME280;34442;52.362;-1.302;2023-05-07T09:37:13;100333.78;;;18.86;100.00
48652;BME280;34442;52.362;-1.302;2023-05-07T09:39:41;100336.00;;;18.89;100.00
48652;BME280;34442;52.362;-1.302;2023-05-07T09:42:06;100336.59;;;18.27;100.00
48652;BME280;34442;52.362;-1.302;2023-05-07T09:44:32;100333.28;;;18.89;100.00
48652;BME280;34442;52.362;-1.302;2023-05-07T09:46:59;100335.50;;;19.55;100.00
48652;BME280;34442;52.362;-1.302;2023-05-07T09:49:29;100326.94;;;20.19;100.00
48652;BME280;34442;52.362;-1.302;2023-05-07T09:51:59;100336.19;;;19.93;100.00
48652;BME280;34442;52.362;-1.302;2023-05-07T09:54:26;100352.28;;;19.26;100.00
48652;BME280;34442;52.362;-1.302;2023-05-07T09:56:52;100348.75;;;18.83;100.00
48652;BME280;34442;52.362;-1.302;2023-05-07T09:59:18;100353.47;;;18.98;100.00
48652;BME280;34442;52.362;-1.302;2023-05-07T10:01:44;100357.47;;;19.33;100.00
48652;BME280;34442;52.362;-1.302;2023-05-07T10:04:10;100352.63;;;19.45;100.00
48652;BME280;34442;52.362;-1.302;2023-05-07T10:06:37;100354.13;;;19.68;100.00
48652;BME280;34442;52.362;-1.302;2023-05-07T10:09:04;100351.22;;;20.00;100.00
48652;BME280;34442;52.362;-1.302;2023-05-07T10:11:36;100362.44;;;20.45;100.00
48652;BME280;34442;52.362;-1.302;2023-05-07T10:14:03;100360.81;;;20.39;100.00
48652;BME280;34442;52.362;-1.302;2023-05-07T10:16:34;100366.16;;;19.77;100.00
48652;BME280;34442;52.362;-1.302;2023-05-07T10:19:05;100366.09;;;19.62;100.00
48652;BME280;34442;52.362;-1.302;2023-05-07T10:21:35;100372.03;;;19.54;100.00
48652;BME280;34442;52.362;-1.302;2023-05-07T10:24:22;100372.53;;;19.46;100.00
48652;BME280;34442;52.362;-1.302;2023-05-07T10:26:52;100366.16;;;19.72;100.00
48652;BME280;34442;52.362;-1.302;2023-05-07T10:29:29;100372.72;;;19.76;100.00
48652;BME280;34442;52.362;-1.302;2023-05-07T10:34:32;100377.00;;;19.62;100.00
48652;BME280;34442;52.362;-1.302;2023-05-07T10:37:00;100374.97;;;20.05;100.00
48652;BME280;34442;52.362;-1.302;2023-05-07T10:39:26;100373.94;;;20.88;100.00
48652;BME280;34442;52.362;-1.302;2023-05-07T10:41:52;100378.84;;;21.01;100.00
48652;BME280;34442;52.362;-1.302;2023-05-07T10:44:30;100371.22;;;20.52;100.00
48652;BME280;34442;52.362;-1.302;2023-05-07T10:47:09;100367.63;;;20.36;100.00
48652;BME280;34442;52.362;-1.302;2023-05-07T10:49:36;100373.41;;;20.55;100.00
48652;BME280;34442;52.362;-1.302;2023-05-07T10:52:15;100375.34;;;20.75;100.00
48652;BME280;34442;52.362;-1.302;2023-05-07T10:54:42;100369.53;;;20.41;100.00
48652;BME280;34442;52.362;-1.302;2023-05-07T10:57:38;100372.84;;;20.94;100.00
48652;BME280;34442;52.362;-1.302;2023-05-07T11:05:28;100380.75;;;20.39;100.00
48652;BME280;34442;52.362;-1.302;2023-05-07T11:07:58;100384.28;;;20.24;100.00
48652;BME280;34442;52.362;-1.302;2023-05-07T11:10:56;100378.22;;;20.02;100.00
48652;BME280;34442;52.362;-1.302;2023-05-07T11:13:44;100383.97;;;20.05;100.00
48652;BME280;34442;52.362;-1.302;2023-05-07T11:18:51;100382.91;;;20.22;100.00
48652;BME280;34442;52.362;-1.302;2023-05-07T11:21:33;100382.44;;;20.76;100.00
48652;BME280;34442;52.362;-1.302;2023-05-07T11:23:59;100381.88;;;20.79;100.00
48652;BME280;34442;52.362;-1.302;2023-05-07T11:26:26;100391.09;;;20.32;100.00
48652;BME280;34442;52.362;-1.302;2023-05-07T11:28:52;100394.31;;;20.03;100.00
48652;BME280;34442;52.362;-1.302;2023-05-07T11:31:23;100389.47;;;20.36;100.00
48652;BME280;34442;52.362;-1.302;2023-05-07T11:33:49;100390.59;;;20.45;100.00
48652;BME280;34442;52.362;-1.302;2023-05-07T11:36:15;100399.06;;;20.33;100.00
48652;BME280;34442;52.362;-1.302;2023-05-07T11:38:41;100403.38;;;20.09;100.00
48652;BME280;34442;52.362;-1.302;2023-05-07T11:41:07;100400.81;;;19.77;100.00
48652;BME280;34442;52.362;-1.302;2023-05-07T11:43:33;100411.28;;;19.53;100.00
48652;BME280;34442;52.362;-1.302;2023-05-07T11:46:11;100405.53;;;19.44;100.00
48652;BME280;34442;52.362;-1.302;2023-05-07T11:48:36;100409.06;;;19.45;100.00
48652;BME280;34442;52.362;-1.302;2023-05-07T11:53:38;100405.22;;;19.93;100.00
48652;BME280;34442;52.362;-1.302;2023-05-07T11:56:08;100411.03;;;20.32;100.00
48652;BME280;34442;52.362;-1.302;2023-05-07T12:00:59;100407.00;;;20.81;100.00
48652;BME280;34442;52.362;-1.302;2023-05-07T12:03:24;100404.28;;;20.76;100.00
48652;BME280;34442;52.362;-1.302;2023-05-07T12:05:49;100400.75;;;20.91;100.00
48652;BME280;34442;52.362;-1.302;2023-05-07T12:08:19;100404.00;;;20.72;100.00
48652;BME280;34442;52.362;-1.302;2023-05-07T12:10:47;100408.94;;;20.70;100.00
48652;BME280;34442;52.362;-1.302;2023-05-07T12:13:20;100408.09;;;20.65;100.00
48652;BME280;34442;52.362;-1.302;2023-05-07T12:15:45;100401.25;;;21.08;100.00
48652;BME280;34442;52.362;-1.302;2023-05-07T12:18:11;100407.75;;;21.53;100.00
48652;BME280;34442;52.362;-1.302;2023-05-07T12:20:40;100399.50;;;21.58;100.00
48652;BME280;34442;52.362;-1.302;2023-05-07T12:23:06;100396.56;;;21.19;100.00
48652;BME280;34442;52.362;-1.302;2023-05-07T12:25:36;100392.81;;;20.99;100.00
48652;BME280;34442;52.362;-1.302;2023-05-07T12:28:02;100403.19;;;20.92;100.00
48652;BME280;34442;52.362;-1.302;2023-05-07T12:30:30;100401.28;;;20.77;100.00
48652;BME280;34442;52.362;-1.302;2023-05-07T12:32:55;100418.16;;;20.44;100.00
48652;BME280;34442;52.362;-1.302;2023-05-07T12:35:31;100410.50;;;20.20;100.00
48652;BME280;34442;52.362;-1.302;2023-05-07T12:37:58;100407.44;;;20.12;100.00
48652;BME280;34442;52.362;-1.302;2023-05-07T12:40:35;100404.47;;;20.18;100.00
48652;BME280;34442;52.362;-1.302;2023-05-07T12:43:00;100406.91;;;20.10;100.00
48652;BME280;34442;52.362;-1.302;2023-05-07T12:45:25;100401.69;;;20.03;100.00